Time;durP1;ratioP1;P1;durP2;ratioP2;P2;SDS_P1;SDS_P2;PMS_P1;PMS_P2;Temp;Humidity;BMP_temperature;BMP_pressure;BME280_temperature;BME280_humidity;BME280_pressure;Samples;Min_cycle;Max_cycle;Signal;HPM_P1;HPM_P2
2022/03/09 00:01:12;;;;;;;;;;;13.80;49.60;;;;;;5071435;28;19925;-69
2022/03/09 00:03:38;;;;;;;;;;;13.00;49.20;;;;;;5071734;28;20373;-71
2022/03/09 00:06:05;;;;;;;;;;;13.00;49.20;;;;;;5072697;28;19947;-71
2022/03/09 00:08:31;;;;;;;;;;;13.00;49.20;;;;;;5070717;28;19967;-72
2022/03/09 00:10:58;;;;;;;;;;;13.00;49.20;;;;;;5072196;28;19950;-71
2022/03/09 00:13:26;;;;;;;;;;;13.20;49.30;;;;;;5072158;28;19924;-71
2022/03/09 00:15:52;;;;;;;;;;;13.00;49.20;;;;;;5070997;28;19925;-70
2022/03/09 00:18:19;;;;;;;;;;;12.90;49.10;;;;;;5071234;28;19931;-71
2022/03/09 00:20:47;;;;;;;;;;;13.70;49.60;;;;;;5072075;28;20359;-71
2022/03/09 00:23:13;;;;;;;;;;;12.90;49.20;;;;;;5070614;28;19936;-71
2022/03/09 00:25:40;;;;;;;;;;;12.90;49.20;;;;;;5070976;28;20347;-71
2022/03/09 00:28:07;;;;;;;;;;;13.50;49.50;;;;;;5071000;28;19925;-69
2022/03/09 00:30:34;;;;;;;;;;;12.90;49.20;;;;;;5072090;28;19931;-71
2022/03/09 00:33:01;;;;;;;;;;;13.10;49.30;;;;;;5070792;28;19924;-70
2022/03/09 00:35:28;;;;;;;;;;;13.60;49.50;;;;;;5071006;28;19937;-71
2022/03/09 00:37:54;;;;;;;;;;;13.80;49.60;;;;;;5071786;28;19924;-71
2022/03/09 00:40:21;;;;;;;;;;;12.80;49.10;;;;;;5072062;28;19931;-72
2022/03/09 00:42:47;;;;;;;;;;;12.80;49.10;;;;;;5071825;28;20008;-71
2022/03/09 00:45:14;;;;;;;;;;;12.80;49.10;;;;;;5070632;28;19924;-71
2022/03/09 00:47:42;;;;;;;;;;;12.80;49.10;;;;;;5070552;28;19932;-71
2022/03/09 00:50:11;;;;;;;;;;;12.80;49.10;;;;;;5070615;28;19929;-69
2022/03/09 00:52:38;;;;;;;;;;;12.80;49.00;;;;;;5071381;28;19924;-71
2022/03/09 00:55:05;;;;;;;;;;;12.70;49.10;;;;;;5070656;28;20275;-71
2022/03/09 00:57:31;;;;;;;;;;;12.70;49.00;;;;;;5071800;28;19943;-69
2022/03/09 00:59:58;;;;;;;;;;;12.70;49.10;;;;;;5070473;28;19924;-71
2022/03/09 01:02:25;;;;;;;;;;;12.70;49.10;;;;;;5071357;28;19931;-71
2022/03/09 01:04:53;;;;;;;;;;;12.70;49.00;;;;;;5071794;28;20266;-71
2022/03/09 01:07:20;;;;;;;;;;;12.70;49.00;;;;;;5074200;28;20418;-71
2022/03/09 01:09:46;;;;;;;;;;;12.70;49.00;;;;;;5074352;28;20296;-71
2022/03/09 01:12:13;;;;;;;;;;;12.70;49.00;;;;;;5073928;28;20299;-71
2022/03/09 01:14:39;;;;;;;;;;;12.60;48.90;;;;;;5075740;28;19950;-71
2022/03/09 01:17:06;;;;;;;;;;;12.60;49.00;;;;;;5075329;28;19925;-71
2022/03/09 01:19:32;;;;;;;;;;;12.60;48.90;;;;;;5075442;28;19924;-71
2022/03/09 01:22:00;;;;;;;;;;;12.60;48.90;;;;;;5073915;28;19925;-72
2022/03/09 01:24:27;;;;;;;;;;;12.60;49.00;;;;;;5075307;28;19931;-71
2022/03/09 01:26:54;;;;;;;;;;;12.60;49.00;;;;;;5074106;28;19931;-71
2022/03/09 01:29:20;;;;;;;;;;;12.70;49.10;;;;;;5075074;28;19924;-71
2022/03/09 01:31:47;;;;;;;;;;;12.60;49.10;;;;;;5073210;28;19932;-71
2022/03/09 01:34:13;;;;;;;;;;;12.70;49.10;;;;;;5075309;28;19925;-71
2022/03/09 01:36:40;;;;;;;;;;;12.50;49.00;;;;;;5075050;28;19925;-71
2022/03/09 01:39:08;;;;;;;;;;;12.60;49.00;;;;;;5074828;28;19924;-71
2022/03/09 01:41:34;;;;;;;;;;;12.50;49.00;;;;;;5073671;28;19925;-71
2022/03/09 01:44:08;;;;;;;;;;;12.50;49.10;;;;;;5073558;28;20369;-69
2022/03/09 01:46:34;;;;;;;;;;;12.50;49.00;;;;;;5073834;28;19925;-71
2022/03/09 01:49:01;;;;;;;;;;;12.60;49.10;;;;;;5073782;28;19925;-69
2022/03/09 01:51:28;;;;;;;;;;;12.50;49.00;;;;;;5073423;28;19924;-71
2022/03/09 01:53:54;;;;;;;;;;;12.50;49.00;;;;;;5073523;28;19925;-71
2022/03/09 01:56:22;;;;;;;;;;;12.50;49.00;;;;;;5073636;28;19925;-71
2022/03/09 01:58:49;;;;;;;;;;;12.50;49.00;;;;;;5073172;28;20311;-70
2022/03/09 02:03:51;;;;;;;;;;;12.60;49.10;;;;;;5268666;22;20004;-69
2022/03/09 02:06:17;;;;;;;;;;;12.50;49.00;;;;;;5075167;28;19931;-69
2022/03/09 02:11:38;;;;;;;;;;;12.60;49.10;;;;;;5037123;28;20369;-69
2022/03/09 02:14:04;;;;;;;;;;;12.90;49.20;;;;;;5074402;28;19931;-69
2022/03/09 02:16:31;;;;;;;;;;;12.50;49.00;;;;;;5072858;28;19925;-69
2022/03/09 02:18:58;;;;;;;;;;;12.60;49.10;;;;;;5073062;28;19928;-69
2022/03/09 02:21:25;;;;;;;;;;;13.00;49.30;;;;;;5072689;28;19924;-70
2022/03/09 02:23:53;;;;;;;;;;;12.80;49.10;;;;;;5073492;28;20303;-70
2022/03/09 02:26:20;;;;;;;;;;;12.60;49.00;;;;;;5073056;28;20380;-69
2022/03/09 02:28:47;;;;;;;;;;;12.50;48.90;;;;;;5072793;28;19938;-70
2022/03/09 02:31:13;;;;;;;;;;;12.60;49.00;;;;;;5072697;28;19925;-69
2022/03/09 02:33:43;;;;;;;;;;;12.60;49.00;;;;;;5073720;28;19924;-69
2022/03/09 02:36:10;;;;;;;;;;;12.60;48.90;;;;;;5072873;28;19935;-69
2022/03/09 02:38:36;;;;;;;;;;;12.60;48.90;;;;;;5073627;28;19925;-69
2022/03/09 02:41:04;;;;;;;;;;;13.30;49.30;;;;;;5072436;28;19925;-70
2022/03/09 02:43:31;;;;;;;;;;;12.60;48.90;;;;;;5073366;28;19931;-70
2022/03/09 02:45:57;;;;;;;;;;;13.50;49.50;;;;;;5073503;28;19925;-69
2022/03/09 02:48:24;;;;;;;;;;;13.10;49.20;;;;;;5073677;28;20376;-69
2022/03/09 02:50:51;;;;;;;;;;;13.00;49.10;;;;;;5072642;28;20388;-69
2022/03/09 02:53:17;;;;;;;;;;;12.60;48.90;;;;;;5072202;28;20452;-69
2022/03/09 02:55:44;;;;;;;;;;;12.60;48.90;;;;;;5073955;28;19924;-69
2022/03/09 02:58:12;;;;;;;;;;;12.60;48.90;;;;;;5072304;28;19924;-69
2022/03/09 03:00:38;;;;;;;;;;;12.60;48.90;;;;;;5073124;28;19931;-69
2022/03/09 03:03:05;;;;;;;;;;;12.70;48.90;;;;;;5073177;28;19931;-69
2022/03/09 03:05:31;;;;;;;;;;;13.60;49.40;;;;;;5072013;28;19930;-69
2022/03/09 03:07:58;;;;;;;;;;;12.70;48.90;;;;;;5071880;28;19940;-69
2022/03/09 03:10:24;;;;;;;;;;;12.70;48.90;;;;;;5073250;28;19974;-70
2022/03/09 03:12:51;;;;;;;;;;;12.70;48.90;;;;;;5072451;28;19924;-71
2022/03/09 03:15:19;;;;;;;;;;;12.70;48.90;;;;;;5073120;28;19940;-71
2022/03/09 03:17:45;;;;;;;;;;;12.60;48.80;;;;;;5072203;28;20299;-71
2022/03/09 03:20:12;;;;;;;;;;;13.60;49.40;;;;;;5073292;28;20323;-71
2022/03/09 03:22:38;;;;;;;;;;;12.70;48.80;;;;;;5071669;28;20308;-71
2022/03/09 03:25:06;;;;;;;;;;;12.70;48.80;;;;;;5071555;28;19946;-71
2022/03/09 03:27:32;;;;;;;;;;;12.70;48.90;;;;;;5071964;28;20276;-69
2022/03/09 03:29:59;;;;;;;;;;;13.00;49.00;;;;;;5071275;28;20293;-71
2022/03/09 03:32:27;;;;;;;;;;;12.70;48.80;;;;;;5054977;28;20369;-71
2022/03/09 03:34:53;;;;;;;;;;;12.70;48.80;;;;;;5071755;28;19924;-71
2022/03/09 03:37:20;;;;;;;;;;;12.90;49.00;;;;;;5071220;28;19928;-71
2022/03/09 03:39:47;;;;;;;;;;;12.80;48.90;;;;;;5071388;28;19931;-69
2022/03/09 03:42:13;;;;;;;;;;;12.70;48.80;;;;;;5071536;28;19925;-71
2022/03/09 03:44:40;;;;;;;;;;;12.70;48.80;;;;;;5071516;28;19924;-71
2022/03/09 03:47:06;;;;;;;;;;;12.70;48.80;;;;;;5071425;28;19932;-71
2022/03/09 03:49:34;;;;;;;;;;;12.70;48.80;;;;;;5054555;28;19987;-71
2022/03/09 03:52:01;;;;;;;;;;;12.70;48.80;;;;;;5070725;28;19931;-70
2022/03/09 03:54:27;;;;;;;;;;;13.60;49.30;;;;;;5071156;28;19931;-71
2022/03/09 03:56:54;;;;;;;;;;;12.70;48.80;;;;;;5071182;28;19934;-71
2022/03/09 03:59:21;;;;;;;;;;;12.70;48.80;;;;;;5071101;28;19934;-72
2022/03/09 04:01:47;;;;;;;;;;;13.40;49.20;;;;;;5070114;28;19924;-69
2022/03/09 04:04:14;;;;;;;;;;;12.70;48.80;;;;;;5072361;28;19931;-71
2022/03/09 04:06:42;;;;;;;;;;;13.30;49.10;;;;;;5071324;28;19928;-71
2022/03/09 04:09:08;;;;;;;;;;;13.00;48.90;;;;;;5071447;28;19963;-71
2022/03/09 04:11:35;;;;;;;;;;;12.70;48.70;;;;;;5071216;28;20373;-70
2022/03/09 04:14:01;;;;;;;;;;;12.70;48.70;;;;;;5070700;28;20297;-70
2022/03/09 04:16:28;;;;;;;;;;;12.70;48.70;;;;;;5071021;28;19928;-71
2022/03/09 04:18:54;;;;;;;;;;;12.70;48.70;;;;;;5072464;28;19924;-71
2022/03/09 04:21:21;;;;;;;;;;;12.70;48.70;;;;;;5070974;28;19924;-71
2022/03/09 04:23:49;;;;;;;;;;;12.70;48.70;;;;;;5072334;28;20424;-70
2022/03/09 04:26:16;;;;;;;;;;;12.70;48.60;;;;;;5070716;28;20003;-71
2022/03/09 04:28:42;;;;;;;;;;;12.70;48.60;;;;;;5070914;28;19925;-71
2022/03/09 04:31:09;;;;;;;;;;;12.70;48.70;;;;;;5071056;28;19924;-71
2022/03/09 04:33:35;;;;;;;;;;;12.70;48.70;;;;;;5070819;28;20012;-71
2022/03/09 04:36:02;;;;;;;;;;;12.70;48.60;;;;;;5072040;28;19924;-69
2022/03/09 04:38:28;;;;;;;;;;;12.70;48.60;;;;;;5071959;28;20402;-71
2022/03/09 04:40:56;;;;;;;;;;;12.70;48.60;;;;;;5074834;28;20406;-71
2022/03/09 04:43:23;;;;;;;;;;;12.70;48.60;;;;;;5075564;28;19924;-71
2022/03/09 04:45:50;;;;;;;;;;;12.70;48.60;;;;;;5076009;28;20299;-71
2022/03/09 04:48:16;;;;;;;;;;;12.70;48.60;;;;;;5075788;28;19925;-70
2022/03/09 04:50:43;;;;;;;;;;;12.70;48.60;;;;;;5076285;28;20012;-71
2022/03/09 04:53:09;;;;;;;;;;;12.70;48.60;;;;;;5075595;28;19930;-71
2022/03/09 04:55:36;;;;;;;;;;;13.30;48.90;;;;;;5075668;28;20011;-71
2022/03/09 04:58:04;;;;;;;;;;;12.70;48.60;;;;;;5074404;28;19924;-69
2022/03/09 05:00:31;;;;;;;;;;;12.70;48.60;;;;;;5075614;28;19928;-68
2022/03/09 05:02:58;;;;;;;;;;;12.70;48.60;;;;;;5074226;28;20029;-68
2022/03/09 05:05:24;;;;;;;;;;;12.70;48.60;;;;;;5075779;28;20384;-68
2022/03/09 05:07:51;;;;;;;;;;;12.70;48.60;;;;;;5074026;28;19935;-69
2022/03/09 05:10:18;;;;;;;;;;;13.60;49.10;;;;;;5075501;28;19931;-68
2022/03/09 05:12:46;;;;;;;;;;;13.30;48.90;;;;;;5074176;28;19935;-68
2022/03/09 05:15:14;;;;;;;;;;;12.70;48.60;;;;;;5074322;28;19950;-67
2022/03/09 05:17:41;;;;;;;;;;;12.70;48.80;;;;;;5075581;28;19931;-68
2022/03/09 05:20:08;;;;;;;;;;;12.70;48.60;;;;;;5074316;28;19925;-70
2022/03/09 05:22:34;;;;;;;;;;;12.70;48.50;;;;;;5073828;28;19931;-68
2022/03/09 05:25:01;;;;;;;;;;;13.30;48.90;;;;;;5075169;28;19929;-68
2022/03/09 05:27:27;;;;;;;;;;;12.70;48.50;;;;;;5075053;28;20303;-70
2022/03/09 05:29:54;;;;;;;;;;;12.70;49.10;;;;;;5073844;28;19950;-68
2022/03/09 05:32:22;;;;;;;;;;;12.60;48.50;;;;;;5073945;28;20538;-68
2022/03/09 05:34:50;;;;;;;;;;;13.40;48.90;;;;;;5074192;28;20265;-68
2022/03/09 05:37:19;;;;;;;;;;;12.70;48.50;;;;;;5074003;28;19924;-68
2022/03/09 05:39:46;;;;;;;;;;;13.20;48.80;;;;;;5074354;28;20094;-69
2022/03/09 05:42:12;;;;;;;;;;;12.60;48.50;;;;;;5073609;28;19931;-68
2022/03/09 05:44:39;;;;;;;;;;;12.70;48.50;;;;;;5073959;28;19931;-68
2022/03/09 05:47:06;;;;;;;;;;;12.80;48.60;;;;;;5075402;28;19925;-68
2022/03/09 05:49:34;;;;;;;;;;;12.60;48.50;;;;;;5073464;28;20394;-68
2022/03/09 05:52:01;;;;;;;;;;;12.80;48.60;;;;;;5073176;28;19928;-68
2022/03/09 05:54:27;;;;;;;;;;;12.60;48.40;;;;;;5073777;28;19930;-69
2022/03/09 05:56:54;;;;;;;;;;;12.70;48.50;;;;;;5073655;28;19931;-68
2022/03/09 05:59:20;;;;;;;;;;;12.70;49.10;;;;;;5074817;28;19925;-69
2022/03/09 06:01:47;;;;;;;;;;;12.70;48.50;;;;;;5073251;28;19925;-69
2022/03/09 06:04:13;;;;;;;;;;;13.00;48.70;;;;;;5073504;28;19924;-68
2022/03/09 06:06:42;;;;;;;;;;;12.70;48.50;;;;;;5073556;28;19924;-68
2022/03/09 06:09:08;;;;;;;;;;;12.60;48.40;;;;;;5073678;28;20303;-71
2022/03/09 06:11:35;;;;;;;;;;;12.60;48.40;;;;;;5073283;28;19946;-68
2022/03/09 06:14:01;;;;;;;;;;;12.70;48.50;;;;;;5072930;28;20019;-68
2022/03/09 06:16:28;;;;;;;;;;;12.70;48.50;;;;;;5074293;28;19929;-70
2022/03/09 06:18:55;;;;;;;;;;;12.70;48.50;;;;;;5073635;28;19928;-71
2022/03/09 06:21:21;;;;;;;;;;;12.70;48.50;;;;;;5074135;28;19928;-69
2022/03/09 06:23:49;;;;;;;;;;;12.70;48.40;;;;;;5072827;28;19924;-68
2022/03/09 06:26:16;;;;;;;;;;;13.30;48.80;;;;;;5074381;28;20002;-69
2022/03/09 06:28:42;;;;;;;;;;;12.70;48.40;;;;;;5073260;28;19930;-68
2022/03/09 06:31:09;;;;;;;;;;;12.90;48.60;;;;;;5074198;28;19936;-68
2022/03/09 06:33:35;;;;;;;;;;;12.70;48.40;;;;;;5072506;28;19932;-68
2022/03/09 06:36:02;;;;;;;;;;;13.40;48.80;;;;;;5072862;28;19931;-71
2022/03/09 06:38:29;;;;;;;;;;;12.60;48.40;;;;;;5073532;28;19934;-71
2022/03/09 06:40:56;;;;;;;;;;;12.70;48.40;;;;;;5072397;28;20402;-70
2022/03/09 06:43:23;;;;;;;;;;;12.70;48.40;;;;;;5073552;28;19958;-71
2022/03/09 06:45:50;;;;;;;;;;;12.70;48.40;;;;;;5070872;28;19924;-71
2022/03/09 06:48:16;;;;;;;;;;;12.70;48.40;;;;;;5073310;28;19924;-69
2022/03/09 06:50:43;;;;;;;;;;;12.70;48.40;;;;;;5073325;28;19931;-70
2022/03/09 06:53:10;;;;;;;;;;;12.70;48.40;;;;;;5072976;28;19968;-69
2022/03/09 06:55:36;;;;;;;;;;;12.80;48.40;;;;;;5072177;28;20372;-69
2022/03/09 06:58:04;;;;;;;;;;;12.70;48.30;;;;;;5072740;28;19947;-69
2022/03/09 07:00:31;;;;;;;;;;;12.60;48.30;;;;;;5072171;28;19934;-68
2022/03/09 07:02:59;;;;;;;;;;;12.70;48.40;;;;;;5070981;28;20377;-65
2022/03/09 07:05:26;;;;;;;;;;;13.60;48.80;;;;;;5073078;28;20289;-68
2022/03/09 07:07:53;;;;;;;;;;;12.70;48.40;;;;;;5071623;28;19933;-66
2022/03/09 07:10:19;;;;;;;;;;;12.60;48.30;;;;;;5072067;28;19931;-65
2022/03/09 07:12:46;;;;;;;;;;;12.70;48.40;;;;;;5072400;28;19930;-66
2022/03/09 07:15:14;;;;;;;;;;;13.40;48.80;;;;;;5071598;28;19925;-66
2022/03/09 07:17:40;;;;;;;;;;;12.70;48.40;;;;;;5071857;28;19925;-66
2022/03/09 07:20:07;;;;;;;;;;;12.70;48.40;;;;;;5072524;28;19925;-66
2022/03/09 07:22:34;;;;;;;;;;;12.70;48.40;;;;;;5070794;28;19931;-65
2022/03/09 07:25:00;;;;;;;;;;;12.70;48.40;;;;;;5071274;28;19931;-71
2022/03/09 07:27:27;;;;;;;;;;;13.00;48.50;;;;;;5071715;28;19931;-70
2022/03/09 07:29:53;;;;;;;;;;;13.50;48.90;;;;;;5071783;28;19924;-72
2022/03/09 07:32:21;;;;;;;;;;;13.70;48.90;;;;;;5071490;28;20011;-72
2022/03/09 07:34:48;;;;;;;;;;;12.90;48.50;;;;;;5072146;28;20403;-72
2022/03/09 07:37:15;;;;;;;;;;;12.90;48.50;;;;;;5072473;28;20445;-72
2022/03/09 07:39:41;;;;;;;;;;;13.50;48.60;;;;;;5071003;28;19982;-71
2022/03/09 07:42:08;;;;;;;;;;;13.40;48.50;;;;;;5072019;28;19929;-72
2022/03/09 07:44:35;;;;;;;;;;;13.10;48.30;;;;;;5071857;28;19931;-72
2022/03/09 07:47:01;;;;;;;;;;;13.10;48.20;;;;;;5072735;28;19931;-71
2022/03/09 07:49:33;;;;;;;;;;;14.00;49.30;;;;;;5072714;28;19929;-71
2022/03/09 07:52:00;;;;;;;;;;;13.60;48.40;;;;;;5071333;28;19940;-71
2022/03/09 07:54:26;;;;;;;;;;;13.60;48.40;;;;;;5064382;28;19924;-70
2022/03/09 07:56:53;;;;;;;;;;;13.30;48.20;;;;;;5051482;28;20432;-69
2022/03/09 07:59:20;;;;;;;;;;;13.40;48.20;;;;;;5065279;28;20416;-70
2022/03/09 08:01:46;;;;;;;;;;;13.40;48.10;;;;;;5071145;28;20402;-70
2022/03/09 08:04:13;;;;;;;;;;;13.50;48.10;;;;;;5071142;28;20287;-70
2022/03/09 08:06:42;;;;;;;;;;;13.50;48.00;;;;;;5071444;28;20319;-69
2022/03/09 08:09:09;;;;;;;;;;;13.50;48.00;;;;;;5071060;28;19924;-70
2022/03/09 08:11:35;;;;;;;;;;;13.50;47.90;;;;;;5072455;28;19924;-70
2022/03/09 08:14:02;;;;;;;;;;;13.60;48.00;;;;;;5062662;28;20369;-70
2022/03/09 08:16:28;;;;;;;;;;;13.60;47.90;;;;;;5051550;28;20373;-70
2022/03/09 08:18:55;;;;;;;;;;;13.60;47.90;;;;;;5053534;28;20325;-70
2022/03/09 08:21:21;;;;;;;;;;;13.70;47.90;;;;;;5063475;28;20307;-70
2022/03/09 08:23:49;;;;;;;;;;;14.00;48.10;;;;;;5062895;28;20319;-70
2022/03/09 08:26:16;;;;;;;;;;;13.70;47.90;;;;;;5069942;28;19925;-71
2022/03/09 08:28:42;;;;;;;;;;;13.70;47.90;;;;;;5070005;28;19928;-70
2022/03/09 08:31:09;;;;;;;;;;;13.70;47.90;;;;;;5071135;28;20295;-70
2022/03/09 08:33:38;;;;;;;;;;;13.80;48.00;;;;;;5070474;28;20300;-70
2022/03/09 08:36:06;;;;;;;;;;;13.80;47.90;;;;;;5072511;28;20007;-70
2022/03/09 08:38:32;;;;;;;;;;;13.80;47.90;;;;;;5070181;28;19932;-69
2022/03/09 08:41:00;;;;;;;;;;;13.80;47.90;;;;;;5070379;28;19924;-70
2022/03/09 08:43:27;;;;;;;;;;;13.80;47.90;;;;;;5071533;28;19924;-70
2022/03/09 08:45:53;;;;;;;;;;;13.80;47.90;;;;;;5070524;28;19925;-70
2022/03/09 08:48:20;;;;;;;;;;;13.80;47.80;;;;;;5072087;28;19924;-70
2022/03/09 08:50:47;;;;;;;;;;;13.90;47.90;;;;;;5072167;28;19930;-70
2022/03/09 08:53:14;;;;;;;;;;;13.80;47.80;;;;;;5069925;28;19924;-70
2022/03/09 08:55:40;;;;;;;;;;;13.90;47.90;;;;;;5071298;28;20568;-70
2022/03/09 08:58:08;;;;;;;;;;;13.90;47.90;;;;;;5070443;28;20292;-70
2022/03/09 09:00:35;;;;;;;;;;;13.90;47.80;;;;;;5072108;28;19924;-68
2022/03/09 09:03:02;;;;;;;;;;;13.90;48.10;;;;;;5057563;28;19937;-69
2022/03/09 09:05:28;;;;;;;;;;;14.00;48.30;;;;;;5050631;28;19975;-69
2022/03/09 09:07:55;;;;;;;;;;;14.10;48.10;;;;;;5051971;28;19932;-68
2022/03/09 09:10:22;;;;;;;;;;;14.10;48.00;;;;;;5064787;28;19970;-70
2022/03/09 09:12:50;;;;;;;;;;;14.10;48.00;;;;;;5071293;28;19934;-71
2022/03/09 09:15:19;;;;;;;;;;;14.20;48.40;;;;;;5071834;28;19982;-70
2022/03/09 09:17:45;;;;;;;;;;;14.20;48.10;;;;;;5071794;28;19932;-70
2022/03/09 09:20:13;;;;;;;;;;;14.30;48.00;;;;;;5072699;28;19929;-71
2022/03/09 09:22:42;;;;;;;;;;;14.30;47.90;;;;;;5072777;28;20282;-71
2022/03/09 09:25:10;;;;;;;;;;;14.30;47.70;;;;;;5069891;28;19960;-71
2022/03/09 09:27:36;;;;;;;;;;;14.30;47.70;;;;;;5073530;28;19964;-71
2022/03/09 09:30:03;;;;;;;;;;;14.40;47.70;;;;;;5074192;28;20273;-71
2022/03/09 09:32:31;;;;;;;;;;;14.40;47.60;;;;;;5073226;28;20451;-70
2022/03/09 09:34:58;;;;;;;;;;;14.40;47.60;;;;;;5072882;28;19924;-70
2022/03/09 09:37:25;;;;;;;;;;;14.40;47.50;;;;;;5073516;28;19924;-69
2022/03/09 09:39:53;;;;;;;;;;;14.40;47.40;;;;;;5076870;28;20327;-70
2022/03/09 09:42:21;;;;;;;;;;;14.50;47.50;;;;;;5072569;28;19931;-69
2022/03/09 09:44:48;;;;;;;;;;;14.50;47.40;;;;;;5073463;28;19933;-70
2022/03/09 09:47:14;;;;;;;;;;;14.50;47.40;;;;;;5074717;28;19930;-70
2022/03/09 09:49:42;;;;;;;;;;;14.50;47.40;;;;;;5074533;28;20380;-69
2022/03/09 09:52:09;;;;;;;;;;;14.50;47.40;;;;;;5074140;28;20296;-70
2022/03/09 09:54:36;;;;;;;;;;;14.50;47.30;;;;;;5074432;28;20281;-69
2022/03/09 09:57:03;;;;;;;;;;;14.60;47.30;;;;;;5072720;28;19929;-70
2022/03/09 09:59:29;;;;;;;;;;;14.60;47.30;;;;;;5073031;28;19979;-70
2022/03/09 10:01:58;;;;;;;;;;;14.60;47.30;;;;;;5074017;28;20007;-70
2022/03/09 10:04:25;;;;;;;;;;;14.60;47.30;;;;;;5074393;28;20011;-70
2022/03/09 10:06:53;;;;;;;;;;;14.70;47.30;;;;;;5072824;28;19930;-70
2022/03/09 10:09:19;;;;;;;;;;;14.60;47.20;;;;;;5053428;28;19924;-70
2022/03/09 10:11:47;;;;;;;;;;;14.70;47.20;;;;;;5053127;28;19978;-70
2022/03/09 10:14:13;;;;;;;;;;;14.70;47.80;;;;;;5053470;28;19968;-70
2022/03/09 10:16:41;;;;;;;;;;;14.70;47.20;;;;;;5072071;28;19931;-70
2022/03/09 10:19:09;;;;;;;;;;;14.70;47.20;;;;;;5073624;28;19925;-69
2022/03/09 10:21:39;;;;;;;;;;;14.70;47.20;;;;;;5074025;28;19986;-68
2022/03/09 10:24:09;;;;;;;;;;;14.80;47.20;;;;;;5073532;28;19925;-68
2022/03/09 10:26:46;;;;;;;;;;;14.80;47.20;;;;;;5073282;28;19924;-68
2022/03/09 10:29:13;;;;;;;;;;;14.80;47.20;;;;;;5073243;28;20356;-68
2022/03/09 10:31:40;;;;;;;;;;;14.90;47.30;;;;;;5073005;28;19925;-68
2022/03/09 10:34:07;;;;;;;;;;;14.90;47.00;;;;;;5074178;28;19925;-68
2022/03/09 10:36:33;;;;;;;;;;;14.90;47.00;;;;;;5073831;28;19928;-71
2022/03/09 10:39:11;;;;;;;;;;;14.90;46.90;;;;;;5072514;28;19926;-68
2022/03/09 10:41:37;;;;;;;;;;;15.00;47.00;;;;;;5072504;28;19931;-71
2022/03/09 10:44:04;;;;;;;;;;;15.00;47.10;;;;;;5073617;28;19948;-68
2022/03/09 10:46:33;;;;;;;;;;;15.00;47.10;;;;;;5072802;28;19924;-66
2022/03/09 10:49:01;;;;;;;;;;;15.00;46.90;;;;;;5073630;28;19924;-70
2022/03/09 10:51:28;;;;;;;;;;;15.10;47.00;;;;;;5072282;28;19924;-69
2022/03/09 10:53:55;;;;;;;;;;;15.10;47.10;;;;;;5073075;28;19966;-66
2022/03/09 10:56:23;;;;;;;;;;;15.10;46.90;;;;;;5073864;28;19924;-66
2022/03/09 10:58:49;;;;;;;;;;;15.10;46.80;;;;;;5073556;28;19928;-66
2022/03/09 11:01:16;;;;;;;;;;;15.20;46.90;;;;;;5073831;28;19931;-71
2022/03/09 11:03:43;;;;;;;;;;;15.20;47.30;;;;;;5073229;28;19928;-68
2022/03/09 11:06:10;;;;;;;;;;;15.20;47.00;;;;;;5072267;28;20013;-69
2022/03/09 11:08:37;;;;;;;;;;;15.20;47.10;;;;;;5073414;28;19934;-69
2022/03/09 11:11:03;;;;;;;;;;;15.30;47.10;;;;;;5073006;28;19934;-70
2022/03/09 11:13:32;;;;;;;;;;;15.30;47.50;;;;;;5071537;28;19924;-70
2022/03/09 11:15:58;;;;;;;;;;;15.30;47.80;;;;;;5072346;28;19930;-69
2022/03/09 11:18:25;;;;;;;;;;;15.30;47.70;;;;;;5073708;28;19924;-69
2022/03/09 11:20:52;;;;;;;;;;;15.40;47.50;;;;;;5072227;28;19924;-69
2022/03/09 11:23:19;;;;;;;;;;;15.30;47.40;;;;;;5072912;28;20287;-69
2022/03/09 11:25:48;;;;;;;;;;;15.40;47.40;;;;;;5071663;28;19931;-69
2022/03/09 11:28:20;;;;;;;;;;;15.40;47.90;;;;;;5071886;28;19931;-69
2022/03/09 11:30:54;;;;;;;;;;;15.30;47.20;;;;;;5072186;28;19924;-69
2022/03/09 11:33:48;;;;;;;;;;;15.40;47.20;;;;;;5071818;28;19924;-70
2022/03/09 11:36:33;;;;;;;;;;;15.30;47.10;;;;;;5048349;28;19968;-69
2022/03/09 11:39:19;;;;;;;;;;;15.30;47.10;;;;;;5072369;28;20008;-69
2022/03/09 11:41:45;;;;;;;;;;;15.30;47.00;;;;;;5072521;28;19968;-72
2022/03/09 11:44:29;;;;;;;;;;;15.30;47.10;;;;;;5072972;28;19924;-70
2022/03/09 11:47:01;;;;;;;;;;;15.30;47.10;;;;;;5072933;28;20277;-71
2022/03/09 11:49:30;;;;;;;;;;;15.30;47.10;;;;;;5069957;28;19924;-71
2022/03/09 11:52:06;;;;;;;;;;;15.30;47.20;;;;;;5072291;28;19929;-71
2022/03/09 11:54:42;;;;;;;;;;;15.40;47.20;;;;;;5071105;28;19924;-69
2022/03/09 11:57:09;;;;;;;;;;;15.30;47.30;;;;;;5071235;28;19924;-70
2022/03/09 11:59:36;;;;;;;;;;;15.40;47.40;;;;;;5069774;28;20323;-69
2022/03/09 12:02:23;;;;;;;;;;;15.40;47.50;;;;;;5070841;28;20301;-69
2022/03/09 12:04:51;;;;;;;;;;;15.40;47.60;;;;;;5069230;28;20066;-69
2022/03/09 12:07:38;;;;;;;;;;;15.40;47.50;;;;;;5070444;28;20296;-69
2022/03/09 12:10:05;;;;;;;;;;;15.50;47.50;;;;;;5069295;28;19933;-69
2022/03/09 12:12:32;;;;;;;;;;;15.40;47.30;;;;;;5060501;28;19930;-68
2022/03/09 12:14:59;;;;;;;;;;;15.40;47.20;;;;;;5069622;28;19931;-69
2022/03/09 12:17:28;;;;;;;;;;;15.40;47.20;;;;;;5069437;28;19924;-69
2022/03/09 12:20:16;;;;;;;;;;;15.40;47.20;;;;;;5070400;28;19924;-69
2022/03/09 12:23:02;;;;;;;;;;;15.40;47.20;;;;;;5070685;28;19931;-70
2022/03/09 12:25:40;;;;;;;;;;;15.40;47.30;;;;;;5070927;28;19934;-69
2022/03/09 12:28:28;;;;;;;;;;;15.40;47.30;;;;;;5071115;28;19925;-69
2022/03/09 12:30:55;;;;;;;;;;;15.30;47.20;;;;;;5045588;28;19929;-69
2022/03/09 12:33:22;;;;;;;;;;;15.30;47.30;;;;;;5070495;28;20641;-69
2022/03/09 12:35:49;;;;;;;;;;;15.30;47.20;;;;;;5071532;28;20415;-69
2022/03/09 12:38:15;;;;;;;;;;;15.30;47.20;;;;;;5070821;28;20361;-69
2022/03/09 12:40:45;;;;;;;;;;;15.20;47.10;;;;;;5070654;28;20381;-69
2022/03/09 12:43:15;;;;;;;;;;;15.20;47.20;;;;;;5070254;28;20461;-69
2022/03/09 12:45:50;;;;;;;;;;;15.20;47.10;;;;;;5070272;28;20308;-69
2022/03/09 12:48:18;;;;;;;;;;;15.20;47.10;;;;;;5071534;28;19931;-69
2022/03/09 12:50:44;;;;;;;;;;;15.10;47.00;;;;;;5071089;28;19929;-69
2022/03/09 12:53:11;;;;;;;;;;;15.10;47.00;;;;;;5070798;28;19954;-69
2022/03/09 12:55:37;;;;;;;;;;;15.10;47.00;;;;;;5070910;28;19928;-68
2022/03/09 12:58:05;;;;;;;;;;;15.10;47.00;;;;;;5071004;28;19929;-67
2022/03/09 13:00:34;;;;;;;;;;;15.10;47.00;;;;;;5072289;28;19925;-68
2022/03/09 13:03:01;;;;;;;;;;;15.10;47.00;;;;;;5073126;28;19924;-68
2022/03/09 13:05:28;;;;;;;;;;;15.00;47.10;;;;;;5075069;28;20457;-68
2022/03/09 13:07:56;;;;;;;;;;;15.00;47.10;;;;;;5073124;28;19999;-68
2022/03/09 13:10:24;;;;;;;;;;;15.00;47.20;;;;;;5075840;28;20343;-68
2022/03/09 13:12:51;;;;;;;;;;;15.00;47.20;;;;;;5075224;28;19925;-68
2022/03/09 13:15:20;;;;;;;;;;;15.00;46.40;;;;;;5075750;28;20368;-68
2022/03/09 13:17:47;;;;;;;;;;;14.90;46.80;;;;;;5074319;28;19925;-68
2022/03/09 13:20:13;;;;;;;;;;;14.90;46.80;;;;;;5074388;28;20573;-68
2022/03/09 13:22:40;;;;;;;;;;;14.90;46.90;;;;;;5074093;28;19931;-68
2022/03/09 13:25:07;;;;;;;;;;;14.90;47.40;;;;;;5075459;28;20388;-68
2022/03/09 13:27:34;;;;;;;;;;;14.90;46.90;;;;;;5074696;28;19929;-68
2022/03/09 13:30:10;;;;;;;;;;;14.90;46.90;;;;;;5075192;28;20343;-68
2022/03/09 13:32:38;;;;;;;;;;;14.90;46.80;;;;;;5075115;28;20300;-68
2022/03/09 13:35:05;;;;;;;;;;;14.80;46.80;;;;;;5075128;28;19951;-68
2022/03/09 13:37:32;;;;;;;;;;;14.80;46.80;;;;;;5074406;28;20426;-68
2022/03/09 13:40:00;;;;;;;;;;;14.80;46.90;;;;;;5075084;28;19977;-68
2022/03/09 13:42:27;;;;;;;;;;;14.80;46.90;;;;;;5074054;28;19932;-68
2022/03/09 13:45:00;;;;;;;;;;;14.80;46.80;;;;;;5073760;28;20288;-68
2022/03/09 13:47:27;;;;;;;;;;;14.80;46.80;;;;;;5074082;28;19974;-68
2022/03/09 13:49:54;;;;;;;;;;;14.80;46.80;;;;;;5057195;28;20460;-68
2022/03/09 13:52:22;;;;;;;;;;;14.80;46.70;;;;;;5071893;28;20288;-68
2022/03/09 13:54:48;;;;;;;;;;;14.80;46.80;;;;;;5073982;28;19925;-69
2022/03/09 13:57:26;;;;;;;;;;;14.80;46.80;;;;;;5073974;28;19928;-69
2022/03/09 13:59:52;;;;;;;;;;;14.80;46.70;;;;;;5074931;28;20015;-68
2022/03/09 14:02:19;;;;;;;;;;;14.80;46.70;;;;;;5073237;28;19924;-68
2022/03/09 14:04:46;;;;;;;;;;;14.80;46.70;;;;;;5074901;28;19931;-68
2022/03/09 14:07:13;;;;;;;;;;;14.80;46.90;;;;;;5074465;28;19931;-66
2022/03/09 14:09:40;;;;;;;;;;;14.80;46.90;;;;;;5073592;28;20303;-67
2022/03/09 14:12:13;;;;;;;;;;;14.70;47.00;;;;;;5072898;28;20538;-67
2022/03/09 14:14:40;;;;;;;;;;;14.70;47.10;;;;;;5073587;28;19998;-67
2022/03/09 14:17:06;;;;;;;;;;;14.70;47.10;;;;;;5073385;28;20011;-67
2022/03/09 14:19:33;;;;;;;;;;;14.70;47.10;;;;;;5074720;28;19930;-66
2022/03/09 14:21:59;;;;;;;;;;;14.70;47.10;;;;;;5074293;28;19924;-67
2022/03/09 14:24:30;;;;;;;;;;;14.70;47.00;;;;;;5074131;28;19925;-66